Time;durP1;ratioP1;P1;durP2;ratioP2;P2;SDS_P1;SDS_P2;PMS_P1;PMS_P2;Temp;Humidity;BMP_temperature;BMP_pressure;BME280_temperature;BME280_humidity;BME280_pressure;Samples;Min_cycle;Max_cycle;Signal;HPM_P1;HPM_P2
2022/04/18 00:01:07;;;;;;;14.07;7.88;;;9.20;58.90;;;;;;4970847;28;20044;-79
2022/04/18 00:03:33;;;;;;;12.82;7.85;;;9.20;59.10;;;;;;4958600;28;20048;-78
2022/04/18 00:06:00;;;;;;;17.33;9.57;;;9.00;59.20;;;;;;5004078;28;20017;-79
2022/04/18 00:08:26;;;;;;;12.77;7.85;;;9.00;59.50;;;;;;4973128;28;20038;-79
2022/04/18 00:10:53;;;;;;;16.25;10.05;;;9.00;59.50;;;;;;4956030;28;20029;-79
2022/04/18 00:13:19;;;;;;;15.63;9.77;;;8.90;59.90;;;;;;4988903;28;20025;-79
2022/04/18 00:15:46;;;;;;;13.05;8.75;;;8.90;60.10;;;;;;4989134;28;21534;-79
2022/04/18 00:18:13;;;;;;;16.23;9.50;;;8.80;60.20;;;;;;4956438;28;20038;-79
2022/04/18 00:20:43;;;;;;;13.60;8.80;;;8.80;60.90;;;;;;4990558;28;20029;-79
2022/04/18 00:23:13;;;;;;;12.05;8.13;;;8.70;60.80;;;;;;4974338;28;20029;-79
2022/04/18 00:25:45;;;;;;;12.20;8.65;;;8.70;61.00;;;;;;4986691;28;20350;-79
2022/04/18 00:28:19;;;;;;;11.38;7.18;;;8.70;61.30;;;;;;4974577;28;20026;-79
2022/04/18 00:30:54;;;;;;;13.02;8.70;;;8.70;61.20;;;;;;4972755;28;20408;-79
2022/04/18 00:33:21;;;;;;;13.05;8.48;;;8.60;61.20;;;;;;4989168;28;20026;-79
2022/04/18 00:36:01;;;;;;;11.38;7.30;;;8.60;61.10;;;;;;4987605;28;20029;-79
2022/04/18 00:39:05;;;;;;;9.20;6.45;;;8.60;61.20;;;;;;5004645;28;20014;-79
2022/04/18 00:41:45;;;;;;;10.25;7.20;;;8.50;61.40;;;;;;4957935;28;20413;-79
2022/04/18 00:44:22;;;;;;;12.20;6.78;;;8.50;61.40;;;;;;5004672;28;20037;-79
2022/04/18 00:47:24;;;;;;;13.50;8.18;;;8.50;61.50;;;;;;5005584;28;20044;-79
2022/04/18 00:50:19;;;;;;;10.73;6.57;;;8.50;61.50;;;;;;5000436;28;20037;-79
2022/04/18 00:53:01;;;;;;;10.27;6.53;;;8.40;61.60;;;;;;4971241;28;20351;-79
2022/04/18 00:55:38;;;;;;;;;;;8.40;61.70;;;;;;4969392;28;20057;-79
2022/04/18 00:58:15;;;;;;;13.55;7.22;;;8.30;61.60;;;;;;5002065;28;19918;-79
2022/04/18 01:00:42;;;;;;;14.38;7.38;;;8.30;61.60;;;;;;4994323;28;20033;-79
2022/04/18 01:03:09;;;;;;;11.27;7.03;;;8.20;61.90;;;;;;4984764;28;20081;-79
2022/04/18 01:05:53;;;;;;;11.18;7.28;;;8.20;62.10;;;;;;4968029;28;20042;-79
2022/04/18 01:08:27;;;;;;;10.32;6.90;;;8.10;62.60;;;;;;5002863;28;20038;-79
2022/04/18 01:10:55;;;;;;;12.75;7.97;;;8.10;62.50;;;;;;4968170;28;20037;-78
2022/04/18 01:13:51;;;;;;;13.93;7.72;;;8.00;62.80;;;;;;4986793;28;20026;-78
2022/04/18 01:17:09;;;;;;;13.35;7.30;;;8.00;63.30;;;;;;4999341;28;20033;-79
2022/04/18 01:20:04;;;;;;;11.75;7.25;;;8.00;63.10;;;;;;4999738;28;20026;-79
2022/04/18 01:23:03;;;;;;;10.95;6.72;;;8.00;63.00;;;;;;4924535;29;20051;-78
2022/04/18 01:29:22;;;;;;;11.27;6.30;;;7.90;63.00;;;;;;4975926;28;20034;-79
2022/04/18 01:32:10;;;;;;;11.57;5.80;;;7.90;63.00;;;;;;5000377;28;20118;-79
2022/04/18 01:34:37;;;;;;;13.02;6.70;;;7.80;63.30;;;;;;5001226;28;20030;-79
2022/04/18 01:37:25;;;;;;;10.55;6.40;;;7.80;63.50;;;;;;4977200;28;20019;-79
2022/04/18 01:39:57;;;;;;;10.95;6.38;;;7.80;63.60;;;;;;4987112;28;20037;-79
2022/04/18 01:42:28;;;;;;;8.18;4.32;;;7.80;63.70;;;;;;4950133;28;20056;-79
2022/04/18 01:44:56;;;;;;;10.40;5.88;;;7.80;63.70;;;;;;5005584;28;20030;-80
2022/04/18 01:47:32;;;;;;;9.70;5.53;;;7.80;63.60;;;;;;4991796;28;20049;-80
2022/04/18 01:50:09;;;;;;;9.45;5.93;;;7.70;63.70;;;;;;4986668;28;20046;-79
2022/04/18 01:52:55;;;;;;;12.50;6.57;;;7.70;63.70;;;;;;4985526;28;20046;-79
2022/04/18 01:55:27;;;;;;;10.82;5.88;;;7.70;64.00;;;;;;4981434;28;20034;-80
2022/04/18 01:57:59;;;;;;;8.88;5.05;;;7.60;64.10;;;;;;4986666;28;20054;-80
2022/04/18 02:00:34;;;;;;;12.13;5.57;;;7.60;64.00;;;;;;4966202;28;20042;-80
2022/04/18 02:03:12;;;;;;;11.80;6.53;;;7.60;64.30;;;;;;4984482;28;20061;-80
2022/04/18 02:05:55;;;;;;;10.38;6.30;;;7.60;65.20;;;;;;4964415;28;20042;-80
2022/04/18 02:08:31;;;;;;;10.30;5.03;;;7.50;64.80;;;;;;4939802;28;20041;-78
2022/04/18 02:11:00;;;;;;;8.30;5.35;;;7.50;64.80;;;;;;4957791;28;20039;-78
2022/04/18 02:13:38;;;;;;;8.63;5.25;;;7.50;64.80;;;;;;4945553;28;20222;-78
2022/04/18 02:16:18;;;;;;;9.40;4.80;;;7.50;64.90;;;;;;4912281;28;20047;-78
2022/04/18 02:19:05;;;;;;;9.80;5.40;;;7.40;64.90;;;;;;4908021;28;20038;-78
2022/04/18 02:21:33;;;;;;;9.88;6.10;;;7.40;65.00;;;;;;4915710;28;20062;-84
2022/04/18 02:24:00;;;;;;;10.40;6.10;;;7.40;65.20;;;;;;4914985;28;20487;-84
2022/04/18 02:26:27;;;;;;;9.57;5.43;;;7.30;65.20;;;;;;4917555;28;20039;-83
2022/04/18 02:29:05;;;;;;;10.50;5.43;;;7.30;65.20;;;;;;4916920;28;20411;-83
2022/04/18 02:31:31;;;;;;;8.63;4.55;;;7.30;65.30;;;;;;4915873;28;20051;-83
2022/04/18 02:33:58;;;;;;;10.65;5.18;;;7.20;65.40;;;;;;4934459;28;20037;-84
2022/04/18 02:36:24;;;;;;;9.90;5.57;;;7.20;65.50;;;;;;4919092;28;20430;-84
2022/04/18 02:38:51;;;;;;;11.02;6.32;;;7.20;65.40;;;;;;4933644;28;20026;-83
2022/04/18 02:41:17;;;;;;;6.72;4.63;;;7.20;65.50;;;;;;4924357;28;20413;-83
2022/04/18 02:43:44;;;;;;;9.30;4.88;;;7.20;65.50;;;;;;4988632;28;21228;-82
2022/04/18 02:46:13;;;;;;;8.90;5.13;;;7.20;65.70;;;;;;4987788;28;20037;-84
2022/04/18 02:48:46;;;;;;;8.90;5.00;;;7.10;65.70;;;;;;5005858;28;20053;-83
2022/04/18 02:51:18;;;;;;;9.30;5.28;;;7.10;65.90;;;;;;4942372;28;21378;-84
2022/04/18 02:53:44;;;;;;;8.43;5.18;;;7.00;66.10;;;;;;4991704;28;20045;-83
2022/04/18 02:56:12;;;;;;;10.00;5.93;;;7.00;66.20;;;;;;4987300;28;20568;-83
2022/04/18 02:58:44;;;;;;;10.98;5.57;;;7.00;66.30;;;;;;4978543;28;20038;-84
2022/04/18 03:01:11;;;;;;;10.93;4.63;;;7.00;66.50;;;;;;4975062;28;20042;-84
2022/04/18 03:03:39;;;;;;;8.00;4.25;;;6.90;66.50;;;;;;4989141;28;20038;-83
2022/04/18 03:06:10;;;;;;;10.23;4.85;;;6.90;66.60;;;;;;5005901;28;20029;-83
2022/04/18 03:08:36;;;;;;;8.02;4.93;;;6.90;66.60;;;;;;4992290;28;20021;-83
2022/04/18 03:11:07;;;;;;;9.00;5.30;;;6.80;66.80;;;;;;4987912;28;20610;-83
2022/04/18 03:13:45;;;;;;;10.00;5.50;;;6.80;67.00;;;;;;4992617;28;20044;-83
2022/04/18 03:16:34;;;;;;;7.38;4.75;;;6.80;67.20;;;;;;4995479;28;20037;-83
2022/04/18 03:19:10;;;;;;;9.80;5.63;;;6.80;67.20;;;;;;5004697;28;20029;-82
2022/04/18 03:21:52;;;;;;;11.33;5.93;;;6.80;67.30;;;;;;4989470;28;20052;-83
2022/04/18 03:24:34;;;;;;;10.50;6.15;;;6.80;67.40;;;;;;4990107;28;20052;-83
2022/04/18 03:27:09;;;;;;;8.97;5.30;;;6.80;67.60;;;;;;5006469;28;20472;-83
2022/04/18 03:29:39;;;;;;;7.70;4.90;;;6.70;67.50;;;;;;4974085;28;20049;-83
2022/04/18 03:32:10;;;;;;;9.57;5.27;;;6.70;67.70;;;;;;5011754;28;20576;-82
2022/04/18 03:34:55;;;;;;;8.27;4.90;;;6.70;67.70;;;;;;5006820;28;20527;-83
2022/04/18 03:40:28;;;;;;;8.82;4.85;;;6.60;67.80;;;;;;4991526;28;20029;-83
2022/04/18 03:43:13;;;;;;;10.60;5.38;;;6.60;67.90;;;;;;4993501;28;20046;-84
2022/04/18 03:45:50;;;;;;;10.60;5.40;;;6.50;68.00;;;;;;4971931;28;20068;-83
2022/04/18 03:48:23;;;;;;;11.07;5.80;;;6.50;68.30;;;;;;4992532;28;20524;-83
2022/04/18 03:51:24;;;;;;;10.73;5.73;;;6.50;68.40;;;;;;4974792;28;20033;-83
2022/04/18 03:53:57;;;;;;;8.63;4.77;;;6.50;68.60;;;;;;4979971;28;20050;-83
2022/04/18 03:56:41;;;;;;;9.03;5.87;;;6.40;68.40;;;;;;4979580;28;20045;-83
2022/04/18 03:59:31;;;;;;;10.23;5.83;;;6.40;68.50;;;;;;4992208;28;20044;-84
2022/04/18 04:02:22;;;;;;;8.02;4.35;;;6.40;68.50;;;;;;4962325;28;20060;-83
2022/04/18 04:05:01;;;;;;;7.30;4.90;;;6.40;68.70;;;;;;4991681;28;20053;-82
2022/04/18 04:12:30;;;;;;;8.53;5.53;;;6.30;69.00;;;;;;4889741;29;20114;-83
2022/04/18 04:16:06;;;;;;;9.57;5.50;;;6.30;69.10;;;;;;4877516;29;20040;-83
2022/04/18 04:18:38;;;;;;;7.70;4.43;;;6.20;69.10;;;;;;4858513;29;20388;-82
2022/04/18 04:21:25;;;;;;;9.80;5.57;;;6.20;69.00;;;;;;4864479;29;20386;-83
2022/04/18 04:23:58;;;;;;;10.20;4.83;;;6.20;69.20;;;;;;4948701;28;20031;-82
2022/04/18 04:26:50;;;;;;;8.37;5.07;;;6.20;69.30;;;;;;4949465;28;20046;-82
2022/04/18 04:29:25;;;;;;;9.47;5.07;;;6.10;69.20;;;;;;4979714;28;20089;-83
2022/04/18 04:32:13;;;;;;;7.30;4.77;;;6.20;69.30;;;;;;4954294;28;20517;-83
2022/04/18 04:34:44;;;;;;;9.43;5.63;;;6.20;69.40;;;;;;4951554;28;20086;-79
2022/04/18 04:37:34;;;;;;;10.27;5.27;;;6.10;69.40;;;;;;4940142;28;20051;-79
2022/04/18 04:40:30;;;;;;;9.13;4.47;;;6.10;69.40;;;;;;4961514;28;20023;-79
2022/04/18 04:43:04;;;;;;;9.63;4.57;;;6.10;69.30;;;;;;4965038;28;20034;-79
2022/04/18 04:45:36;;;;;;;9.17;5.43;;;6.10;69.50;;;;;;4964116;28;20038;-79
2022/04/18 04:48:35;;;;;;;8.70;4.78;;;6.10;69.50;;;;;;4905865;29;20042;-79
2022/04/18 04:51:10;;;;;;;11.00;5.03;;;6.10;69.60;;;;;;4945900;28;20034;-79
2022/04/18 04:53:41;;;;;;;9.13;5.80;;;6.10;69.60;;;;;;4946316;28;20060;-79
2022/04/18 04:56:25;;;;;;;9.30;5.33;;;6.10;69.60;;;;;;4973602;28;20029;-79
2022/04/18 04:58:54;;;;;;;8.67;4.83;;;6.20;69.50;;;;;;5003363;28;20039;-79
2022/04/18 05:01:35;;;;;;;10.97;5.80;;;6.20;69.40;;;;;;5005091;28;20037;-79
2022/04/18 05:04:13;;;;;;;8.93;5.37;;;6.30;69.50;;;;;;4994855;28;20029;-79
2022/04/18 05:06:42;;;;;;;9.90;5.53;;;6.30;69.40;;;;;;5006738;28;20041;-78
2022/04/18 05:09:29;;;;;;;10.27;5.97;;;6.40;69.40;;;;;;4990414;28;20041;-79
2022/04/18 05:12:07;;;;;;;9.20;5.63;;;6.40;69.50;;;;;;4979236;28;20475;-78
2022/04/18 05:14:35;;;;;;;9.10;6.00;;;6.40;69.30;;;;;;4999638;28;20030;-79
2022/04/18 05:17:10;;;;;;;10.23;5.18;;;6.50;69.20;;;;;;4992573;28;20030;-79
2022/04/18 05:19:45;;;;;;;6.60;3.60;;;6.70;69.10;;;;;;4986936;28;20034;-79
2022/04/18 05:22:26;;;;;;;8.83;5.07;;;6.80;69.00;;;;;;4977955;28;20291;-79
2022/04/18 05:24:58;;;;;;;8.20;4.80;;;6.90;68.80;;;;;;4989840;28;20033;-79
2022/04/18 05:27:46;;;;;;;8.67;3.93;;;6.90;68.70;;;;;;4994579;28;20046;-79
2022/04/18 05:30:43;;;;;;;8.97;5.17;;;7.00;68.60;;;;;;4979086;28;20045;-79
2022/04/18 05:33:10;;;;;;;11.37;6.70;;;7.10;68.50;;;;;;5004556;28;20037;-79
2022/04/18 05:36:07;;;;;;;9.70;5.50;;;7.20;68.60;;;;;;4987033;28;20025;-79
2022/04/18 05:38:36;;;;;;;8.85;5.43;;;7.30;68.50;;;;;;4988133;28;20021;-79
2022/04/18 05:41:12;;;;;;;8.25;5.40;;;7.40;68.40;;;;;;4983972;28;20025;-79
2022/04/18 05:43:41;;;;;;;9.85;5.55;;;7.50;68.40;;;;;;4949762;28;20045;-79
2022/04/18 05:46:12;;;;;;;8.68;5.63;;;7.60;68.30;;;;;;5006119;28;20037;-79
2022/04/18 05:48:39;;;;;;;11.43;5.80;;;7.70;68.10;;;;;;5005797;28;20398;-79
2022/04/18 05:51:06;;;;;;;11.07;6.27;;;7.80;68.10;;;;;;4987191;28;20034;-79
2022/04/18 05:53:36;;;;;;;12.33;7.10;;;8.00;68.00;;;;;;4987548;28;20041;-76
2022/04/18 05:56:15;;;;;;;10.32;6.13;;;8.10;67.90;;;;;;4991222;28;20370;-77
2022/04/18 05:58:59;;;;;;;8.13;5.68;;;8.30;67.70;;;;;;4976033;28;20037;-79
2022/04/18 06:02:00;;;;;;;10.80;6.35;;;8.60;67.50;;;;;;4968915;28;20058;-78
2022/04/18 06:05:08;;;;;;;10.18;7.15;;;8.80;67.10;;;;;;4996933;28;20033;-77
2022/04/18 06:07:52;;;;;;;10.02;5.63;;;9.10;66.60;;;;;;4993757;28;20022;-79
2022/04/18 06:10:58;;;;;;;10.65;5.97;;;9.40;66.30;;;;;;4978868;28;20497;-79
2022/04/18 06:13:40;;;;;;;13.30;7.18;;;9.60;65.90;;;;;;4965981;28;20068;-79
2022/04/18 06:16:54;;;;;;;11.18;6.32;;;9.90;65.30;;;;;;4989231;28;20048;-79
2022/04/18 06:19:30;;;;;;;12.00;7.03;;;10.10;64.60;;;;;;4989634;28;20032;-78
2022/04/18 06:22:03;;;;;;;10.57;6.05;;;10.30;64.30;;;;;;4979139;28;20068;-79
2022/04/18 06:24:41;;;;;;;10.75;6.15;;;10.40;64.20;;;;;;4999066;28;20025;-78
2022/04/18 06:27:34;;;;;;;10.65;6.10;;;10.60;64.00;;;;;;5015586;28;20041;-80
2022/04/18 06:30:11;;;;;;;9.55;6.05;;;10.80;63.50;;;;;;4999983;28;20025;-79
2022/04/18 06:33:04;;;;;;;9.38;5.85;;;10.90;63.20;;;;;;4997862;28;20034;-80
2022/04/18 06:35:50;;;;;;;8.95;5.68;;;11.10;63.00;;;;;;4994338;28;20038;-76
2022/04/18 06:38:17;;;;;;;9.70;5.57;;;11.30;62.80;;;;;;4994270;28;20033;-76
2022/04/18 06:41:03;;;;;;;9.50;5.40;;;11.50;62.40;;;;;;4991405;28;20041;-76
2022/04/18 06:43:35;;;;;;;8.93;6.07;;;11.70;62.20;;;;;;5016088;28;20041;-78
2022/04/18 06:46:19;;;;;;;7.80;5.38;;;11.80;62.00;;;;;;4994719;28;20057;-78
2022/04/18 06:49:39;;;;;;;11.48;6.57;;;12.00;61.70;;;;;;5009719;28;20034;-79
2022/04/18 06:53:04;;;;;;;8.30;5.15;;;12.40;61.30;;;;;;5021029;28;20018;-78
2022/04/18 06:59:01;;;;;;;8.93;5.00;;;13.10;59.60;;;;;;4911545;29;20413;-80
2022/04/18 07:01:30;;;;;;;7.53;5.32;;;13.30;59.10;;;;;;4879062;29;20031;-79
2022/04/18 07:04:04;;;;;;;8.27;6.10;;;13.40;58.10;;;;;;4912988;29;20098;-77
2022/04/18 07:06:37;;;;;;;8.52;5.45;;;13.30;58.10;;;;;;4911698;29;20053;-79
2022/04/18 07:09:19;;;;;;;8.77;5.60;;;13.40;58.20;;;;;;4898670;29;20048;-80
2022/04/18 07:12:08;;;;;;;6.35;4.90;;;13.50;57.80;;;;;;4909694;29;20071;-79
2022/04/18 07:15:02;;;;;;;8.47;5.67;;;13.60;57.90;;;;;;4894583;29;20044;-79
2022/04/18 07:17:39;;;;;;;9.80;5.77;;;13.60;57.60;;;;;;4975321;28;20391;-79
2022/04/18 07:23:43;;;;;;;10.40;6.63;;;13.80;57.60;;;;;;4987674;28;20389;-83
2022/04/18 07:26:21;;;;;;;12.02;6.90;;;13.90;56.70;;;;;;5021086;28;20045;-88
2022/04/18 07:28:56;;;;;;;8.88;5.70;;;13.80;57.00;;;;;;4995439;28;20045;-79
2022/04/18 07:33:15;;;;;;;;;;;;;;;;;;;;;
2022/04/18 07:45:17;;;;;;;5.85;4.72;;;14.10;57.40;;;;;;5024031;28;20041;-83
2022/04/18 07:48:14;;;;;;;;;;;;;;;;;;;;;
2022/04/18 07:55:10;;;;;;;9.80;5.57;;;14.70;57.80;;;;;;4982947;28;20293;-84
2022/04/18 08:07:01;;;;;;;8.55;4.93;;;15.30;56.90;;;;;;4919815;29;20044;-85
2022/04/18 08:21:42;;;;;;;5.00;3.33;;;15.70;56.40;;;;;;4837468;29;20041;-81
2022/04/18 08:24:10;;;;;;;4.35;2.83;;;16.00;55.80;;;;;;4862779;29;20033;-79
2022/04/18 08:26:47;;;;;;;5.22;2.47;;;16.10;53.90;;;;;;4883463;28;20044;-82
2022/04/18 08:29:25;;;;;;;7.22;3.05;;;16.20;54.00;;;;;;4977752;28;20042;-81
2022/04/18 08:32:13;;;;;;;4.18;2.20;;;16.40;54.10;;;;;;4981683;28;20649;-82
2022/04/18 08:34:46;;;;;;;6.35;2.60;;;16.70;54.10;;;;;;4979418;28;20033;-81
2022/04/18 08:37:18;;;;;;;3.97;2.30;;;16.80;53.30;;;;;;4933245;28;20045;-81
2022/04/18 08:40:11;;;;;;;7.20;3.10;;;16.90;52.80;;;;;;4954553;28;20022;-82
2022/04/18 08:42:57;;;;;;;;;;;17.10;52.60;;;;;;4978597;28;20045;-83
2022/04/18 08:45:26;;;;;;;4.53;2.08;;;17.10;51.40;;;;;;4964285;28;19910;-82
2022/04/18 08:53:39;;;;;;;3.13;1.77;;;17.40;52.50;;;;;;5018084;28;20040;-82
2022/04/18 08:56:06;;;;;;;4.20;2.85;;;17.60;52.50;;;;;;4972902;28;20044;-84
2022/04/18 08:58:42;;;;;;;5.60;3.97;;;17.80;52.10;;;;;;4979589;28;20446;-81
2022/04/18 09:01:19;;;;;;;3.10;1.80;;;17.90;52.20;;;;;;5013588;28;20056;-81
2022/04/18 09:04:25;;;;;;;3.63;2.05;;;18.10;52.10;;;;;;5005168;28;20045;-80
2022/04/18 09:07:28;;;;;;;6.32;2.10;;;18.30;52.00;;;;;;5010696;28;20037;-81
2022/04/18 09:09:58;;;;;;;4.88;1.58;;;18.60;51.70;;;;;;5003497;28;20034;-80
2022/04/18 09:12:29;;;;;;;2.90;1.50;;;18.70;50.80;;;;;;4992188;28;20040;-82
2022/04/18 09:15:52;;;;;;;3.30;1.83;;;18.80;50.20;;;;;;4996965;28;20038;-81
2022/04/18 09:18:23;;;;;;;1.90;1.02;;;18.90;50.40;;;;;;4973271;28;20397;-82
2022/04/18 09:21:04;;;;;;;3.03;1.17;;;19.10;50.00;;;;;;4970343;28;20111;-81
2022/04/18 09:23:35;;;;;;;2.83;0.95;;;19.30;50.00;;;;;;4988589;28;20646;-84
2022/04/18 09:26:29;;;;;;;3.22;1.60;;;19.50;49.70;;;;;;4989371;28;20524;-86
2022/04/18 09:29:08;;;;;;;3.60;1.75;;;19.70;49.40;;;;;;4977420;28;20033;-85
2022/04/18 09:31:52;;;;;;;3.83;1.73;;;19.80;49.20;;;;;;4989898;28;20064;-86
2022/04/18 09:34:31;;;;;;;4.80;2.20;;;20.00;49.50;;;;;;4975276;28;20358;-86
2022/04/18 09:37:13;;;;;;;4.03;1.40;;;20.20;48.60;;;;;;4994472;28;20037;-82
2022/04/18 09:39:51;;;;;;;2.35;1.38;;;20.30;48.50;;;;;;4978531;28;20038;-80
2022/04/18 09:42:36;;;;;;;3.30;1.63;;;20.50;48.40;;;;;;4991246;28;20037;-81
2022/04/18 09:46:02;;;;;;;2.28;1.15;;;20.60;46.90;;;;;;4973169;28;20516;-82
2022/04/18 09:48:34;;;;;;;2.28;1.20;;;20.60;47.10;;;;;;4991923;28;20029;-80
2022/04/18 09:51:29;;;;;;;2.25;1.15;;;20.70;47.40;;;;;;4974493;28;20472;-82
2022/04/18 09:55:00;;;;;;;2.08;1.20;;;20.80;47.10;;;;;;5017232;28;20052;-84
2022/04/18 10:02:38;;;;;;;2.53;1.10;;;21.00;45.90;;;;;;4967436;28;20046;-83
2022/04/18 10:09:24;;;;;;;1.55;1.00;;;21.40;44.70;;;;;;4981807;28;20046;-84
2022/04/18 10:12:03;;;;;;;2.05;1.00;;;21.50;43.50;;;;;;5003600;28;20061;-84
2022/04/18 10:14:30;;;;;;;2.85;0.98;;;21.50;44.00;;;;;;5005163;28;20026;-83
2022/04/18 10:16:59;;;;;;;2.70;1.10;;;21.70;43.50;;;;;;4975308;28;21335;-83
2022/04/18 10:28:25;;;;;;;4.00;1.30;;;22.10;43.30;;;;;;4943727;28;20047;-84
2022/04/18 10:36:09;;;;;;;2.17;1.27;;;22.20;42.60;;;;;;4952520;28;19945;-82
2022/04/18 10:38:59;;;;;;;3.10;0.80;;;22.20;42.30;;;;;;4847695;29;20849;-82
2022/04/18 10:42:26;;;;;;;;;;;;;;;;;;;;;
2022/04/18 10:51:31;;;;;;;1.45;0.73;;;23.30;40.20;;;;;;4868978;29;20045;-83
2022/04/18 10:59:12;;;;;;;2.92;1.10;;;24.50;39.00;;;;;;4874993;29;20032;-84
2022/04/18 11:02:44;;;;;;;2.58;1.45;;;24.90;38.10;;;;;;4887459;29;20051;-83
2022/04/18 11:06:52;;;;;;;2.03;1.02;;;25.30;38.30;;;;;;4867622;29;20041;-83
2022/04/18 11:13:06;;;;;;;3.03;1.42;;;25.60;34.70;;;;;;4905066;29;20032;-83
2022/04/18 11:16:30;;;;;;;2.13;1.23;;;25.60;35.40;;;;;;4893010;29;20040;-84
2022/04/18 11:19:15;;;;;;;1.20;0.90;;;25.80;34.50;;;;;;4870520;29;20507;-84
2022/04/18 11:22:16;;;;;;;1.85;1.45;;;26.00;34.70;;;;;;4923565;28;20636;-83
2022/04/18 11:24:56;;;;;;;8.65;2.78;;;26.30;34.70;;;;;;4953466;28;20038;-84
2022/04/18 11:31:47;;;;;;;2.05;1.30;;;26.90;35.00;;;;;;4897215;29;20400;-85
2022/04/18 11:36:26;;;;;;;1.80;1.10;;;27.30;34.10;;;;;;4835560;29;20053;-85
2022/04/18 11:45:24;;;;;;;2.10;1.30;;;28.10;33.40;;;;;;4807883;29;20580;-85
2022/04/18 11:53:58;;;;;;;2.22;1.35;;;28.70;33.60;;;;;;4821842;29;20045;-85
2022/04/18 12:11:01;;;;;;;;;;;;;;;;;;;;;
2022/04/18 12:17:51;;;;;;;2.95;1.40;;;30.60;31.90;;;;;;4857720;29;20042;-82
2022/04/18 12:20:30;;;;;;;1.90;1.38;;;30.60;31.10;;;;;;4892625;29;20512;-84
2022/04/18 12:23:00;;;;;;;1.58;1.23;;;30.60;31.20;;;;;;4916994;29;20032;-86
2022/04/18 12:25:36;;;;;;;6.18;2.17;;;30.80;30.90;;;;;;4927050;29;20036;-85
2022/04/18 12:28:11;;;;;;;5.85;4.95;;;30.90;29.70;;;;;;4897905;29;20172;-85
2022/04/18 12:31:44;;;;;;;4.43;4.03;;;30.50;29.90;;;;;;4890268;29;20039;-84
2022/04/18 12:34:42;;;;;;;2.10;1.15;;;30.50;30.60;;;;;;4895728;29;20048;-87
2022/04/18 12:37:28;;;;;;;1.95;1.27;;;30.90;30.10;;;;;;4894685;29;20483;-86
2022/04/18 12:40:14;;;;;;;1.80;1.00;;;31.10;30.00;;;;;;4930522;28;20046;-85
2022/04/18 12:42:55;;;;;;;8.35;1.55;;;31.50;29.60;;;;;;4932745;28;20039;-85
2022/04/18 12:45:25;;;;;;;1.58;1.10;;;31.50;29.90;;;;;;4902142;28;20501;-86
2022/04/18 12:47:53;;;;;;;46.15;41.35;;;31.80;30.00;;;;;;4958006;28;20029;-82
2022/04/18 12:50:26;;;;;;;6.32;5.07;;;32.20;29.40;;;;;;4987186;28;20081;-81
2022/04/18 12:52:55;;;;;;;3.63;1.10;;;32.30;29.60;;;;;;5006170;28;20033;-82
2022/04/18 12:55:46;;;;;;;6.20;1.70;;;32.60;29.30;;;;;;5006171;28;20493;-84
2022/04/18 12:58:21;;;;;;;2.55;1.85;;;32.70;28.80;;;;;;4988236;28;20069;-83
2022/04/18 13:00:50;;;;;;;2.45;1.27;;;32.90;28.70;;;;;;4993473;28;20041;-84
2022/04/18 13:03:18;;;;;;;2.30;1.50;;;33.00;28.70;;;;;;5025953;28;20053;-78
2022/04/18 13:05:49;;;;;;;4.82;4.40;;;33.10;28.90;;;;;;5020320;28;20029;-78
2022/04/18 13:08:17;;;;;;;5.07;2.75;;;33.20;29.20;;;;;;4985400;28;20025;-78
2022/04/18 13:10:45;;;;;;;3.95;2.92;;;33.50;29.20;;;;;;4968846;28;20413;-78
2022/04/18 13:13:19;;;;;;;2.10;1.60;;;33.80;29.10;;;;;;4986166;28;20357;-78
2022/04/18 13:15:46;;;;;;;3.70;2.67;;;34.30;29.10;;;;;;4983099;28;20028;-78
2022/04/18 13:18:21;;;;;;;2.35;1.80;;;34.60;28.20;;;;;;4985399;28;20056;-78
2022/04/18 13:21:32;;;;;;;2.60;1.30;;;34.60;28.20;;;;;;5001439;28;20038;-80
2022/04/18 13:24:27;;;;;;;2.13;1.48;;;34.30;28.00;;;;;;4995052;28;20044;-77
2022/04/18 13:27:01;;;;;;;3.20;1.25;;;34.20;28.30;;;;;;4972811;28;20034;-78
2022/04/18 13:29:49;;;;;;;1.70;0.90;;;34.30;28.10;;;;;;4996491;28;20050;-87
2022/04/18 13:32:28;;;;;;;3.55;3.20;;;34.40;27.90;;;;;;5006216;28;20033;-88
2022/04/18 13:37:48;;;;;;;1.73;0.90;;;34.10;27.30;;;;;;5009851;28;19917;-81
2022/04/18 13:40:23;;;;;;;2.38;0.85;;;33.80;27.60;;;;;;4973673;28;20045;-81
2022/04/18 13:43:58;;;;;;;;;;;;;;;;;;;;;
2022/04/18 13:46:41;;;;;;;1.67;0.82;;;34.10;28.00;;;;;;5022696;28;20030;-85
2022/04/18 13:49:29;;;;;;;10.88;9.77;;;34.50;28.00;;;;;;5001011;28;20029;-76
2022/04/18 13:52:13;;;;;;;5.40;2.50;;;34.60;27.20;;;;;;4947209;28;20026;-77
2022/04/18 13:55:13;;;;;;;5.90;2.13;;;34.80;27.50;;;;;;5003055;28;20122;-77
2022/04/18 13:57:48;;;;;;;1.40;0.90;;;34.90;27.50;;;;;;5003754;28;20033;-77
2022/04/18 14:00:22;;;;;;;1.35;0.80;;;35.00;27.10;;;;;;4988988;28;20494;-75
2022/04/18 14:02:55;;;;;;;2.22;0.80;;;35.00;26.60;;;;;;4997971;28;20022;-75
2022/04/18 14:05:22;;;;;;;2.22;1.42;;;35.10;26.90;;;;;;4997284;28;20037;-75
2022/04/18 14:08:02;;;;;;;2.35;2.15;;;35.00;26.80;;;;;;4982904;28;20018;-75
2022/04/18 14:10:42;;;;;;;1.88;1.20;;;35.00;26.60;;;;;;4957177;28;20497;-75
2022/04/18 14:13:22;;;;;;;1.27;0.68;;;35.00;26.60;;;;;;4982018;28;20049;-76
2022/04/18 14:21:24;;;;;;;1.52;0.70;;;35.20;26.60;;;;;;4978331;28;20097;-87
2022/04/18 14:23:50;;;;;;;1.65;0.90;;;35.40;26.80;;;;;;4986220;28;20035;-86
2022/04/18 14:26:17;;;;;;;3.45;2.67;;;35.70;27.00;;;;;;4971498;28;20038;-85
2022/04/18 14:28:43;;;;;;;1.92;1.40;;;36.30;27.20;;;;;;4983889;28;20041;-87
2022/04/18 14:31:10;;;;;;;1.98;1.48;;;36.60;26.60;;;;;;4967305;28;20064;-89
2022/04/18 14:33:38;;;;;;;1.00;0.60;;;36.70;26.30;;;;;;4967505;28;20038;-86
2022/04/18 14:36:07;;;;;;;1.13;0.60;;;36.50;25.90;;;;;;4968507;28;20050;-86
2022/04/18 14:38:37;;;;;;;1.20;0.60;;;35.90;26.00;;;;;;4985884;28;20034;-87
2022/04/18 14:41:04;;;;;;;3.00;0.90;;;35.30;26.10;;;;;;5011133;28;20050;-88
2022/04/18 14:43:31;;;;;;;1.23;0.50;;;34.90;26.20;;;;;;4985161;28;20449;-88
2022/04/18 14:45:58;;;;;;;0.98;0.50;;;33.90;26.30;;;;;;4956508;28;20022;-88
2022/04/18 14:48:25;;;;;;;2.15;0.70;;;32.40;26.70;;;;;;5004698;28;20057;-87
2022/04/18 14:50:51;;;;;;;1.60;0.80;;;30.90;27.60;;;;;;5002221;28;20029;-86
2022/04/18 14:53:18;;;;;;;2.60;1.00;;;29.40;27.80;;;;;;4987188;28;20033;-86
2022/04/18 14:55:45;;;;;;;2.13;0.70;;;28.10;28.50;;;;;;4992234;28;20038;-86
2022/04/18 14:58:11;;;;;;;1.15;0.50;;;26.90;28.80;;;;;;4972508;28;20026;-88
2022/04/18 15:00:39;;;;;;;1.73;0.50;;;26.10;29.40;;;;;;5002182;28;20056;-89
2022/04/18 15:03:05;;;;;;;1.23;0.63;;;25.40;29.90;;;;;;4991607;28;20042;-89
2022/04/18 15:05:33;;;;;;;2.17;0.60;;;24.90;30.60;;;;;;4988994;28;20026;-89
2022/04/18 15:08:00;;;;;;;1.17;0.63;;;24.50;30.80;;;;;;5001751;28;20025;-88
2022/04/18 15:10:27;;;;;;;1.60;0.77;;;24.10;31.30;;;;;;4986883;28;20026;-89
2022/04/18 15:12:54;;;;;;;1.50;0.80;;;23.70;31.50;;;;;;4991321;28;20034;-85
2022/04/18 15:15:23;;;;;;;0.93;0.60;;;23.30;31.70;;;;;;5004996;28;20037;-85
2022/04/18 15:17:51;;;;;;;0.80;0.50;;;23.00;32.10;;;;;;4976717;28;20064;-89
2022/04/18 15:20:19;;;;;;;1.67;0.70;;;22.80;32.80;;;;;;4988253;28;20018;-89
2022/04/18 15:22:48;;;;;;;1.42;0.80;;;22.50;33.30;;;;;;5005530;28;20610;-88
2022/04/18 15:25:43;;;;;;;;;;;;;;;;;;;;;
2022/04/18 15:32:27;;;;;;;1.38;0.60;;;22.00;33.60;;;;;;5007788;28;20042;-85
2022/04/18 15:38:36;;;;;;;3.17;1.45;;;21.60;34.40;;;;;;4958944;28;20051;-82
2022/04/18 15:42:02;;;;;;;2.08;1.50;;;21.40;35.60;;;;;;4922263;28;20047;-87
2022/04/18 15:45:05;;;;;;;1.55;1.02;;;21.10;36.20;;;;;;4930077;28;20062;-82
2022/04/18 15:47:54;;;;;;;2.05;1.00;;;20.90;37.00;;;;;;4890402;28;20172;-81
2022/04/18 15:51:01;;;;;;;2.75;1.30;;;20.80;37.50;;;;;;4955809;28;20055;-85
2022/04/18 15:54:26;;;;;;;1.42;0.90;;;20.60;37.80;;;;;;4929908;29;20048;-85
2022/04/18 15:57:34;;;;;;;2.65;1.55;;;20.50;38.00;;;;;;4911918;29;20094;-84
2022/04/18 16:00:06;;;;;;;1.58;0.90;;;20.40;38.20;;;;;;4911748;28;20416;-84
2022/04/18 16:02:39;;;;;;;2.40;1.20;;;20.30;38.10;;;;;;4919504;29;20059;-88
2022/04/18 16:05:22;;;;;;;3.38;2.13;;;20.20;38.10;;;;;;4947222;28;20042;-88
2022/04/18 16:07:50;;;;;;;6.15;4.45;;;20.10;38.30;;;;;;4959514;28;20049;-84
2022/04/18 16:10:32;;;;;;;2.85;1.65;;;20.10;38.40;;;;;;4991418;28;20462;-91
2022/04/18 16:13:00;;;;;;;3.83;1.20;;;20.00;38.30;;;;;;4976145;28;20033;-90
2022/04/18 16:15:45;;;;;;;2.42;1.00;;;19.90;38.20;;;;;;4970261;28;20029;-83
2022/04/18 16:18:26;;;;;;;1.38;0.70;;;19.90;38.30;;;;;;4973885;28;20049;-87
2022/04/18 16:21:07;;;;;;;3.17;1.67;;;19.80;38.30;;;;;;4984944;28;20073;-86
2022/04/18 16:23:34;;;;;;;2.33;0.93;;;19.80;38.40;;;;;;4990523;28;20018;-86
2022/04/18 16:26:02;;;;;;;1.65;1.00;;;19.70;38.60;;;;;;4969770;28;20462;-87
2022/04/18 16:28:31;;;;;;;3.78;1.00;;;19.60;38.60;;;;;;4973638;28;20390;-86
2022/04/18 16:33:50;;;;;;;2.10;0.90;;;19.50;39.10;;;;;;4974504;28;20033;-89
2022/04/18 16:36:18;;;;;;;2.00;1.10;;;19.40;39.10;;;;;;4968236;28;20046;-83